Time;durP1;ratioP1;P1;durP2;ratioP2;P2;SDS_P1;SDS_P2;PMS_P1;PMS_P2;Temp;Humidity;BMP_temperature;BMP_pressure;BME280_temperature;BME280_humidity;BME280_pressure;Samples;Min_cycle;Max_cycle;Signal;HPM_P1;HPM_P2
2023/10/21 00:01:11;;;;;;;1.00;1.00;;;;;;;12.23;90.22;96748.84;5004712;28;20049;-52
2023/10/21 00:03:38;;;;;;;0.95;0.95;;;;;;;12.14;90.55;96740.84;5004408;28;20141;-52
2023/10/21 00:06:05;;;;;;;0.93;0.93;;;;;;;12.23;91.88;96754.41;5004867;28;20061;-52
2023/10/21 00:08:31;;;;;;;0.90;0.90;;;;;;;12.05;92.42;96736.81;5004773;28;20053;-55
2023/10/21 00:11:05;;;;;;;0.95;0.95;;;;;;;12.05;93.63;96745.16;5003844;28;20058;-52
2023/10/21 00:13:32;;;;;;;0.95;0.95;;;;;;;12.22;93.46;96747.22;5003961;28;20531;-52
2023/10/21 00:15:59;;;;;;;0.90;0.90;;;;;;;12.19;93.46;96742.47;5004267;28;20049;-53
2023/10/21 00:18:26;;;;;;;1.00;1.00;;;;;;;12.31;93.20;96744.13;5004776;28;20104;-55
2023/10/21 00:20:54;;;;;;;1.10;1.10;;;;;;;12.37;92.17;96740.59;5004393;28;20092;-51
2023/10/21 00:23:22;;;;;;;0.98;0.98;;;;;;;12.27;91.91;96721.88;5004090;28;20128;-52
2023/10/21 00:25:49;;;;;;;1.05;1.05;;;;;;;12.38;91.98;96744.94;5003604;28;20069;-52
2023/10/21 00:28:16;;;;;;;1.00;1.00;;;;;;;12.28;92.43;96745.72;5004482;28;20049;-54
2023/10/21 00:30:45;;;;;;;1.00;1.00;;;;;;;12.24;92.54;96711.56;5002674;28;20045;-52
2023/10/21 00:33:13;;;;;;;0.90;0.90;;;;;;;12.22;93.60;96732.56;5003997;28;20052;-52
2023/10/21 00:35:45;;;;;;;1.00;1.00;;;;;;;12.19;93.31;96703.59;4996451;28;20108;-55
2023/10/21 00:38:13;;;;;;;1.00;1.00;;;;;;;12.17;91.82;96717.09;4984821;28;20429;-54
2023/10/21 00:40:55;;;;;;;0.90;0.90;;;;;;;12.11;91.18;96746.38;4982926;28;20082;-52
2023/10/21 00:43:32;;;;;;;1.07;1.07;;;;;;;11.91;90.79;96720.91;4989652;28;20054;-53
2023/10/21 00:46:02;;;;;;;0.90;0.90;;;;;;;11.91;91.71;96736.75;5003989;28;20380;-54
2023/10/21 00:48:30;;;;;;;0.98;0.98;;;;;;;11.93;92.26;96739.94;5004267;28;20050;-55
2023/10/21 00:50:57;;;;;;;1.00;1.00;;;;;;;11.33;91.64;96672.88;5004065;28;20119;-52
2023/10/21 00:53:24;;;;;;;0.90;0.90;;;;;;;11.77;92.38;96736.66;5004973;28;20479;-52
2023/10/21 00:55:54;;;;;;;1.00;1.00;;;;;;;11.74;92.06;96715.22;5008153;28;20353;-53
2023/10/21 00:58:21;;;;;;;0.90;0.90;;;;;;;11.89;91.61;96744.66;5006477;28;20054;-52
2023/10/21 01:00:49;;;;;;;1.00;1.00;;;;;;;11.78;92.55;96736.25;5006547;28;20065;-52
2023/10/21 01:03:16;;;;;;;0.95;0.95;;;;;;;11.82;92.90;96733.50;5008039;28;20057;-52
2023/10/21 01:05:43;;;;;;;0.90;0.90;;;;;;;11.79;92.50;96750.94;5007956;28;20452;-53
2023/10/21 01:08:10;;;;;;;1.00;1.00;;;;;;;11.72;92.01;96753.66;5007581;28;20429;-54
2023/10/21 01:10:37;;;;;;;0.90;0.90;;;;;;;11.45;91.64;96719.72;5007296;28;20072;-52
2023/10/21 01:13:04;;;;;;;1.00;1.00;;;;;;;11.68;91.88;96741.75;5007413;28;20061;-54
2023/10/21 01:15:30;;;;;;;0.90;0.90;;;;;;;11.36;92.06;96696.25;5007552;28;20061;-52
2023/10/21 01:17:57;;;;;;;0.90;0.90;;;;;;;11.22;91.26;96668.41;5007428;28;20057;-52
2023/10/21 01:20:24;;;;;;;1.00;1.00;;;;;;;11.77;91.08;96743.00;5005620;28;20064;-54
2023/10/21 01:22:50;;;;;;;1.00;1.00;;;;;;;11.72;91.80;96750.88;5007489;28;20057;-52
2023/10/21 01:25:17;;;;;;;1.00;1.00;;;;;;;11.27;91.22;96691.03;5007232;28;20054;-55
2023/10/21 01:27:44;;;;;;;1.00;1.00;;;;;;;11.61;91.92;96756.31;5007245;28;20141;-52
2023/10/21 01:30:11;;;;;;;0.93;0.93;;;;;;;11.56;92.50;96747.53;5005852;28;20066;-54
2023/10/21 01:32:37;;;;;;;0.90;0.90;;;;;;;11.62;92.89;96751.53;5007372;28;20060;-55
2023/10/21 01:35:06;;;;;;;0.90;0.90;;;;;;;11.69;92.42;96752.44;5007021;28;20132;-52
2023/10/21 01:37:33;;;;;;;1.02;1.02;;;;;;;9.50;92.61;96396.22;5007246;28;20271;-51
2023/10/21 01:39:59;;;;;;;1.00;1.00;;;;;;;11.77;92.09;96748.56;5007361;28;20054;-52
2023/10/21 01:42:26;;;;;;;0.90;0.90;;;;;;;11.72;93.02;96764.75;5007163;28;20046;-55
2023/10/21 01:44:55;;;;;;;0.95;0.95;;;;;;;11.79;92.73;96762.03;5006849;28;20050;-53
2023/10/21 01:47:22;;;;;;;0.90;0.90;;;;;;;11.18;92.78;96653.72;5007198;28;20312;-52
2023/10/21 01:49:49;;;;;;;0.90;0.90;;;;;;;11.66;92.82;96746.88;4997409;28;20060;-52
2023/10/21 01:52:15;;;;;;;1.00;1.00;;;;;;;11.49;92.01;96764.91;5005673;28;20259;-55
2023/10/21 01:54:45;;;;;;;0.90;0.90;;;;;;;11.58;92.46;96767.38;5006862;28;20080;-52
2023/10/21 01:57:12;;;;;;;0.90;0.90;;;;;;;11.61;92.34;96755.50;5006653;28;20513;-53
2023/10/21 01:59:39;;;;;;;1.00;1.00;;;;;;;11.54;93.43;96761.78;4996386;28;20473;-55
2023/10/21 02:02:07;;;;;;;0.90;0.90;;;;;;;11.18;94.07;96709.16;4987435;28;20348;-54
2023/10/21 02:04:33;;;;;;;1.00;1.00;;;;;;;11.43;92.73;96754.56;4987092;28;20073;-53
2023/10/21 02:07:00;;;;;;;0.90;0.90;;;;;;;11.18;93.57;96756.28;4984555;28;20185;-52
2023/10/21 02:09:27;;;;;;;0.90;0.90;;;;;;;11.28;93.60;96763.94;4993709;28;20050;-52
2023/10/21 02:11:57;;;;;;;0.90;0.90;;;;;;;11.36;91.43;96777.50;4987134;28;20057;-53
2023/10/21 02:14:24;;;;;;;0.90;0.90;;;;;;;11.03;91.49;96754.56;4986839;28;20532;-52
2023/10/21 02:16:55;;;;;;;0.80;0.80;;;;;;;10.97;90.70;96758.88;4987047;28;20067;-55
2023/10/21 02:19:22;;;;;;;0.82;0.82;;;;;;;11.00;89.94;96769.97;4987119;28;20054;-52
2023/10/21 02:21:51;;;;;;;0.82;0.82;;;;;;;10.93;90.01;96763.56;4986647;28;20047;-54
2023/10/21 02:24:18;;;;;;;1.00;1.00;;;;;;;10.69;90.37;96732.44;4985386;28;20054;-51
2023/10/21 02:26:45;;;;;;;0.90;0.90;;;;;;;10.98;90.99;96771.53;4986839;28;20492;-53
2023/10/21 02:29:11;;;;;;;0.80;0.80;;;;;;;11.01;91.39;96785.44;4986556;28;20058;-55
2023/10/21 02:31:38;;;;;;;0.90;0.90;;;;;;;11.02;92.61;96777.94;4986701;28;20046;-52
2023/10/21 02:34:05;;;;;;;0.90;0.90;;;;;;;10.47;93.35;96691.81;4986540;28;20058;-52
2023/10/21 02:36:31;;;;;;;0.90;0.90;;;;;;;10.84;93.69;96754.75;4986530;28;20093;-52
2023/10/21 02:38:58;;;;;;;0.90;0.90;;;;;;;11.15;93.22;96787.53;4986725;28;20410;-53
2023/10/21 02:41:25;;;;;;;0.90;0.90;;;;;;;11.14;93.08;96783.19;4986970;28;20149;-55
2023/10/21 02:43:52;;;;;;;1.00;1.00;;;;;;;11.07;94.27;96786.69;4994215;28;20062;-52
2023/10/21 02:46:19;;;;;;;0.90;0.90;;;;;;;10.54;93.61;96697.44;5004764;28;20054;-52
2023/10/21 02:48:45;;;;;;;0.90;0.90;;;;;;;11.02;94.07;96789.00;5004447;28;20543;-52
2023/10/21 02:51:14;;;;;;;0.90;0.90;;;;;;;11.01;94.73;96798.47;5005694;28;20516;-52
2023/10/21 02:53:41;;;;;;;0.90;0.90;;;;;;;11.06;93.98;96789.84;5005821;28;20057;-53
2023/10/21 02:56:09;;;;;;;0.80;0.80;;;;;;;10.99;93.78;96789.75;5006106;28;20151;-52
2023/10/21 02:58:37;;;;;;;0.80;0.80;;;;;;;10.58;93.84;96769.47;5004294;28;20148;-52
2023/10/21 03:01:15;;;;;;;0.90;0.90;;;;;;;10.87;93.84;96799.13;5004220;28;20129;-52
2023/10/21 03:03:44;;;;;;;0.88;0.88;;;;;;;10.80;93.74;96803.75;5005277;28;20045;-55
2023/10/21 03:06:12;;;;;;;0.90;0.90;;;;;;;10.36;94.21;96735.19;5005897;28;20054;-51
2023/10/21 03:08:39;;;;;;;0.90;0.90;;;;;;;10.85;94.45;96806.22;5005414;28;20535;-52
2023/10/21 03:11:07;;;;;;;0.82;0.82;;;;;;;10.75;92.63;96795.81;5005258;28;20084;-55
2023/10/21 03:13:36;;;;;;;0.90;0.90;;;;;;;10.63;91.86;96761.66;5003912;28;20071;-55
2023/10/21 03:16:10;;;;;;;0.90;0.90;;;;;;;11.02;91.81;96805.63;5004885;28;20439;-53
2023/10/21 03:18:38;;;;;;;0.90;0.90;;;;;;;10.80;93.08;96798.22;5005592;28;20054;-52
2023/10/21 03:21:05;;;;;;;0.80;0.80;;;;;;;10.85;93.10;96823.63;5005763;28;20398;-52
2023/10/21 03:23:32;;;;;;;0.90;0.90;;;;;;;10.49;93.05;96749.59;5005392;28;20201;-55
2023/10/21 03:26:00;;;;;;;0.90;0.90;;;;;;;10.99;92.32;96811.91;5003527;28;20049;-52
2023/10/21 03:28:28;;;;;;;0.90;0.90;;;;;;;10.47;93.09;96841.34;5005193;28;20050;-54
2023/10/21 03:30:59;;;;;;;0.80;0.80;;;;;;;10.77;93.23;96810.06;5005212;28;20566;-53
2023/10/21 03:33:28;;;;;;;0.90;0.90;;;;;;;10.91;93.25;96829.66;5005267;28;20077;-53
2023/10/21 03:36:04;;;;;;;0.90;0.90;;;;;;;10.83;93.56;96814.13;5004983;28;20045;-52
2023/10/21 03:38:31;;;;;;;0.80;0.80;;;;;;;10.26;93.46;96774.59;5004804;28;20058;-52
2023/10/21 03:41:00;;;;;;;0.90;0.90;;;;;;;10.64;93.64;96807.56;5004522;28;20053;-52
2023/10/21 03:43:26;;;;;;;0.90;0.90;;;;;;;10.80;95.09;96817.63;5000059;28;20050;-55
2023/10/21 03:45:55;;;;;;;0.90;0.90;;;;;;;10.97;95.08;96820.59;4983841;28;20450;-52
2023/10/21 03:48:22;;;;;;;1.00;1.00;;;;;;;10.91;95.48;96810.25;4985557;28;20498;-52
2023/10/21 03:50:50;;;;;;;0.90;0.90;;;;;;;10.92;95.82;96853.41;4985085;28;20440;-52
2023/10/21 03:53:17;;;;;;;0.90;0.90;;;;;;;10.39;95.17;96731.69;4984620;28;20069;-51
2023/10/21 03:55:44;;;;;;;0.90;0.90;;;;;;;10.81;93.77;96808.16;4999625;28;20830;-52
2023/10/21 03:58:11;;;;;;;0.90;0.90;;;;;;;10.66;94.21;96824.59;5000251;28;20492;-52
2023/10/21 04:00:38;;;;;;;0.90;0.90;;;;;;;9.47;94.54;96750.84;4985273;28;20264;-53
2023/10/21 04:03:07;;;;;;;0.80;0.80;;;;;;;9.67;95.04;96817.94;4985213;28;20069;-55
2023/10/21 04:05:35;;;;;;;0.80;0.80;;;;;;;8.70;98.64;96768.78;4985260;28;20050;-52
2023/10/21 04:08:04;;;;;;;0.80;0.80;;;;;;;9.28;97.85;96827.50;4985269;28;20483;-52
2023/10/21 04:10:32;;;;;;;0.80;0.80;;;;;;;9.01;96.77;96768.56;4984733;28;20125;-55
2023/10/21 04:13:01;;;;;;;0.80;0.80;;;;;;;9.51;96.34;96809.78;4985055;28;20141;-55
2023/10/21 04:15:28;;;;;;;0.80;0.80;;;;;;;9.58;96.54;96815.41;4984895;28;20433;-52
2023/10/21 04:17:55;;;;;;;0.80;0.80;;;;;;;9.32;95.40;96762.03;4985277;28;20521;-53
2023/10/21 04:20:22;;;;;;;0.80;0.80;;;;;;;9.64;95.21;96824.97;4999429;28;20112;-52
2023/10/21 04:22:49;;;;;;;0.80;0.80;;;;;;;9.75;93.77;96823.22;4984743;28;20054;-52
2023/10/21 04:25:16;;;;;;;0.80;0.80;;;;;;;9.74;93.57;96823.56;4984408;28;20062;-53
2023/10/21 04:27:44;;;;;;;0.80;0.80;;;;;;;9.64;93.80;96821.44;4984275;28;20042;-53
2023/10/21 04:30:11;;;;;;;0.80;0.80;;;;;;;9.27;94.86;96774.19;4983084;28;20058;-52
2023/10/21 04:32:38;;;;;;;0.82;0.82;;;;;;;9.47;94.99;96803.38;4985022;28;20050;-53
2023/10/21 04:35:05;;;;;;;0.80;0.80;;;;;;;9.65;95.15;96826.59;4984946;28;20078;-52
2023/10/21 04:37:32;;;;;;;0.75;0.75;;;;;;;9.76;95.26;96833.09;4984911;28;20120;-53
2023/10/21 04:39:59;;;;;;;0.82;0.82;;;;;;;9.42;95.81;96766.94;4984381;28;20493;-54
2023/10/21 04:42:26;;;;;;;0.77;0.77;;;;;;;9.95;96.37;96830.25;4984767;28;20151;-54
2023/10/21 04:44:53;;;;;;;0.80;0.80;;;;;;;9.98;96.02;96835.03;4999316;28;20070;-55
2023/10/21 04:47:21;;;;;;;0.80;0.80;;;;;;;9.72;96.42;96776.13;5002682;28;20061;-53
2023/10/21 04:49:47;;;;;;;0.80;0.80;;;;;;;10.13;96.65;96831.34;5002426;28;20046;-52
2023/10/21 04:52:14;;;;;;;0.80;0.80;;;;;;;10.23;96.67;96833.47;5003738;28;20050;-52
2023/10/21 04:54:42;;;;;;;0.82;0.82;;;;;;;10.35;96.31;96844.31;5003671;28;20423;-53
2023/10/21 04:57:10;;;;;;;0.80;0.80;;;;;;;10.41;95.87;96842.84;4990576;28;20153;-52
2023/10/21 04:59:38;;;;;;;0.85;0.85;;;;;;;10.50;94.65;96835.06;5004118;28;20065;-52
2023/10/21 05:02:05;;;;;;;0.90;0.90;;;;;;;10.57;94.54;96846.22;5002801;28;20073;-52
2023/10/21 05:04:32;;;;;;;0.80;0.80;;;;;;;10.62;95.01;96845.91;5003818;28;20124;-54
2023/10/21 05:06:59;;;;;;;0.90;0.90;;;;;;;10.18;94.93;96750.75;5004092;28;20050;-52
2023/10/21 05:09:26;;;;;;;0.90;0.90;;;;;;;10.90;94.97;96847.44;5003428;28;20056;-54
2023/10/21 05:11:53;;;;;;;0.80;0.80;;;;;;;10.17;96.31;96742.84;5003825;28;20060;-56
2023/10/21 05:14:20;;;;;;;0.80;0.80;;;;;;;11.01;95.99;96851.13;5002352;28;20156;-52
2023/10/21 05:16:47;;;;;;;0.90;0.90;;;;;;;11.02;95.76;96872.16;5003489;28;20056;-52
2023/10/21 05:19:14;;;;;;;0.90;0.90;;;;;;;10.87;94.54;96814.94;5002075;28;20436;-53
2023/10/21 05:21:41;;;;;;;0.93;0.93;;;;;;;11.23;94.13;96872.38;5003730;28;20524;-53
2023/10/21 05:24:07;;;;;;;0.80;0.80;;;;;;;11.24;92.64;96879.56;5003825;28;20054;-54
2023/10/21 05:26:34;;;;;;;0.80;0.80;;;;;;;11.38;92.30;96879.72;5002977;28;20058;-52
2023/10/21 05:29:01;;;;;;;0.90;0.90;;;;;;;11.44;90.17;96886.50;5002405;28;20057;-53
2023/10/21 05:31:28;;;;;;;0.90;0.90;;;;;;;11.47;89.97;96874.66;5002474;28;20056;-53
2023/10/21 05:33:57;;;;;;;0.90;0.90;;;;;;;11.56;90.41;96877.91;5002402;28;20061;-54
2023/10/21 05:36:25;;;;;;;1.00;1.00;;;;;;;11.62;89.38;96873.59;5002113;28;20136;-53
2023/10/21 05:38:52;;;;;;;0.90;0.90;;;;;;;11.69;89.11;96880.09;5003935;28;20061;-52
2023/10/21 05:41:18;;;;;;;1.00;1.00;;;;;;;11.91;88.50;96881.06;5006593;28;20132;-54
2023/10/21 05:43:45;;;;;;;0.90;0.90;;;;;;;11.99;87.95;96893.84;5007373;28;20057;-57
2023/10/21 05:46:12;;;;;;;1.00;1.00;;;;;;;11.73;87.35;96824.59;5008037;28;20053;-53
2023/10/21 05:48:39;;;;;;;0.90;0.90;;;;;;;12.21;87.46;96876.16;5007537;28;20504;-54
2023/10/21 05:51:06;;;;;;;1.08;1.08;;;;;;;12.10;87.25;96855.84;4995081;28;20042;-56
2023/10/21 05:53:33;;;;;;;1.00;1.00;;;;;;;12.61;85.74;96880.81;4997110;28;20054;-70
2023/10/21 05:56:00;;;;;;;1.00;1.00;;;;;;;12.54;84.81;96859.34;5005447;28;20137;-55
2023/10/21 05:58:27;;;;;;;1.05;1.05;;;;;;;12.93;84.18;96888.16;5000536;28;20133;-56
2023/10/21 06:01:06;;;;;;;1.10;1.10;;;;;;;10.13;82.95;96394.09;4986589;28;20061;-72
2023/10/21 06:03:35;;;;;;;1.10;1.10;;;;;;;12.46;83.13;96754.91;4986805;28;20056;-75
2023/10/21 06:06:03;;;;;;;1.10;1.10;;;;;;;13.18;83.69;96861.28;4992549;28;20089;-54
2023/10/21 06:08:30;;;;;;;1.20;1.20;;;;;;;13.52;84.00;96893.22;4986766;28;20536;-58
2023/10/21 06:10:57;;;;;;;1.10;1.10;;;;;;;13.19;83.38;96801.69;4986531;28;20074;-71
2023/10/21 06:13:27;;;;;;;1.20;1.20;;;;;;;13.70;83.14;96871.00;5004123;28;20541;-74
2023/10/21 06:15:54;;;;;;;1.20;1.20;;;;;;;13.79;81.32;96865.03;5006897;28;20147;-75
2023/10/21 06:18:20;;;;;;;1.20;1.20;;;;;;;14.15;81.02;96892.53;5001596;28;20161;-55
2023/10/21 06:20:51;;;;;;;1.13;1.13;;;;;;;14.11;81.26;96858.31;4987038;28;20138;-69
2023/10/21 06:23:18;;;;;;;1.20;1.20;;;;;;;14.59;80.52;96900.53;5004543;28;20062;-73
2023/10/21 06:25:45;;;;;;;1.30;1.30;;;;;;;14.82;79.42;96893.31;5006236;28;20428;-55
2023/10/21 06:28:15;;;;;;;1.30;1.30;;;;;;;14.83;79.37;96888.50;5007024;28;20060;-55
2023/10/21 06:30:42;;;;;;;1.40;1.40;;;;;;;15.20;78.89;96899.97;5005801;28;20124;-55
2023/10/21 06:33:09;;;;;;;1.50;1.50;;;;;;;15.08;77.30;96841.81;5005704;28;20054;-69
2023/10/21 06:35:38;;;;;;;1.40;1.40;;;;;;;15.70;75.72;96906.97;5005946;28;20092;-70
2023/10/21 06:38:08;;;;;;;1.50;1.50;;;;;;;15.86;76.04;96907.28;5005165;28;20104;-56
2023/10/21 06:40:35;;;;;;;1.50;1.50;;;;;;;15.73;75.54;96857.91;5005527;28;20050;-67
2023/10/21 06:43:05;;;;;;;1.50;1.50;;;;;;;15.63;75.40;96842.81;5005163;28;20061;-67
2023/10/21 06:45:32;;;;;;;1.50;1.50;;;;;;;16.27;74.90;96911.00;5005654;28;20402;-67
2023/10/21 06:48:01;;;;;;;1.50;1.50;;;;;;;16.51;73.90;96904.47;5005479;28;20096;-54
2023/10/21 06:50:29;;;;;;;1.70;1.70;;;;;;;16.50;72.56;96866.50;5005314;28;20705;-67
2023/10/21 06:52:56;;;;;;;1.70;1.70;;;;;;;16.98;71.68;96911.19;5004790;28;20050;-54
2023/10/21 06:55:23;;;;;;;1.75;1.75;;;;;;;17.10;71.50;96907.09;5005351;28;20062;-69
2023/10/21 06:57:52;;;;;;;1.92;1.92;;;;;;;17.30;70.98;96922.06;5005725;28;20058;-69
2023/10/21 07:00:19;;;;;;;2.00;2.00;;;;;;;17.56;70.39;96907.38;4989576;28;20077;-66
2023/10/21 07:02:46;;;;;;;1.80;1.80;;;;;;;17.74;69.68;96914.34;5006300;28;20060;-69
2023/10/21 07:05:14;;;;;;;1.88;1.88;;;;;;;17.70;68.10;96882.00;4989326;28;20262;-72
2023/10/21 07:07:41;;;;;;;1.85;1.85;;;;;;;18.04;68.23;96902.31;4998482;28;20065;-69
2023/10/21 07:10:09;;;;;;;1.77;1.77;;;;;;;18.43;66.59;96905.34;4817135;28;5001093;-73
2023/10/21 07:12:38;;;;;;;2.05;2.05;;;;;;;18.65;65.95;96905.81;4988250;28;20432;-67
2023/10/21 07:15:07;;;;;;;1.77;1.77;;;;;;;18.23;64.09;96823.13;4991097;28;20093;-55
2023/10/21 07:17:34;;;;;;;1.77;1.77;;;;;;;18.99;65.13;96910.00;4992147;28;20066;-54
2023/10/21 07:20:01;;;;;;;1.83;1.83;;;;;;;19.27;64.89;96909.47;4996574;28;20379;-71
2023/10/21 07:22:28;;;;;;;1.90;1.90;;;;;;;19.44;62.89;96913.22;4999125;28;20101;-54
2023/10/21 07:24:56;;;;;;;2.20;2.20;;;;;;;19.74;60.80;96904.56;5001660;28;20524;-67
2023/10/21 07:27:24;;;;;;;2.03;2.03;;;;;;;19.80;60.90;96902.03;5004862;28;20531;-53
2023/10/21 07:29:51;;;;;;;2.10;2.10;;;;;;;20.09;59.44;96903.75;5003702;28;20638;-53
2023/10/21 07:32:17;;;;;;;2.10;2.10;;;;;;;20.02;60.08;96875.03;5004206;28;20145;-54
2023/10/21 07:34:44;;;;;;;2.20;2.20;;;;;;;20.37;58.37;96885.47;5004687;28;20741;-55
2023/10/21 07:37:11;;;;;;;2.30;2.25;;;;;;;20.61;57.51;96898.16;5004261;28;20133;-70
2023/10/21 07:39:38;;;;;;;2.20;2.20;;;;;;;20.68;57.19;96889.53;5004965;28;20079;-68
2023/10/21 07:42:05;;;;;;;2.22;2.22;;;;;;;20.97;56.49;96901.69;5004447;28;20058;-56
2023/10/21 07:44:32;;;;;;;2.55;2.45;;;;;;;21.13;54.80;96892.44;5003082;28;20053;-68
2023/10/21 07:46:58;;;;;;;2.40;2.30;;;;;;;21.30;54.69;96885.50;5003071;28;20133;-72
2023/10/21 07:49:25;;;;;;;2.25;2.25;;;;;;;21.51;54.24;96891.38;4994362;28;20144;-66
2023/10/21 07:51:52;;;;;;;2.22;2.22;;;;;;;21.10;51.77;96829.31;4999295;28;20048;-54
2023/10/21 07:54:19;;;;;;;2.58;2.47;;;;;;;21.78;52.75;96877.69;5004240;28;20056;-53
2023/10/21 07:56:45;;;;;;;2.83;2.72;;;;;;;21.97;52.50;96879.53;5017982;28;20053;-70
2023/10/21 07:59:16;;;;;;;2.80;2.70;;;;;;;21.96;53.07;96838.47;4996746;28;20552;-53
2023/10/21 08:01:43;;;;;;;2.72;2.63;;;;;;;22.37;52.44;96886.34;4992085;28;20049;-63
2023/10/21 08:04:09;;;;;;;2.85;2.75;;;;;;;21.65;51.03;96781.00;5004242;28;20050;-64
2023/10/21 08:06:37;;;;;;;2.50;2.40;;;;;;;22.36;51.16;96875.50;5002414;28;20120;-68
2023/10/21 08:09:05;;;;;;;2.90;2.80;;;;;;;22.47;50.62;96844.91;4993527;28;20054;-64
2023/10/21 08:11:32;;;;;;;3.10;3.00;;;;;;;22.01;49.28;96739.19;4987472;28;20046;-58
2023/10/21 08:13:59;;;;;;;2.72;2.63;;;;;;;22.91;49.41;96834.56;5002604;28;20061;-64
2023/10/21 08:16:25;;;;;;;3.20;3.10;;;;;;;23.35;49.37;96870.16;5002019;28;20145;-66
2023/10/21 08:18:52;;;;;;;3.10;3.00;;;;;;;23.60;49.44;96864.41;5003208;28;20144;-66
2023/10/21 08:21:19;;;;;;;3.00;2.90;;;;;;;23.78;48.24;96858.84;5003893;28;20053;-54
2023/10/21 08:23:46;;;;;;;2.95;2.85;;;;;;;23.88;47.63;96857.66;5003833;28;20131;-55
2023/10/21 08:26:13;;;;;;;3.30;3.20;;;;;;;24.06;47.85;96854.97;5004041;28;20056;-69
2023/10/21 08:28:39;;;;;;;3.00;2.90;;;;;;;24.30;47.62;96860.88;4994388;28;20141;-56
2023/10/21 08:31:08;;;;;;;3.10;3.00;;;;;;;24.17;46.76;96815.69;4992745;28;20077;-55
2023/10/21 08:33:35;;;;;;;3.28;3.17;;;;;;;24.58;46.51;96860.53;4999279;28;20058;-54
2023/10/21 08:36:02;;;;;;;3.63;3.53;;;;;;;23.98;46.21;96748.94;5000958;28;20049;-61
2023/10/21 08:38:29;;;;;;;3.10;3.00;;;;;;;24.51;47.12;96852.34;4995508;28;20087;-58
2023/10/21 08:40:56;;;;;;;3.00;2.90;;;;;;;24.69;46.90;96849.56;4987174;28;20059;-57
2023/10/21 08:43:23;;;;;;;3.20;3.10;;;;;;;24.94;46.65;96854.97;4988463;28;20081;-61
2023/10/21 08:45:52;;;;;;;3.50;3.40;;;;;;;25.07;45.83;96852.03;4995262;28;20139;-53
2023/10/21 08:48:19;;;;;;;3.70;3.60;;;;;;;25.28;45.17;96846.22;4996313;28;20134;-53
2023/10/21 08:50:49;;;;;;;3.97;3.88;;;;;;;25.44;44.10;96835.84;4998071;28;20524;-62
2023/10/21 08:53:16;;;;;;;3.83;3.72;;;;;;;25.65;43.45;96834.88;5000762;28;20618;-61
2023/10/21 08:55:43;;;;;;;3.97;3.88;;;;;;;25.77;43.79;96837.53;5003192;28;20058;-53
2023/10/21 08:58:10;;;;;;;3.90;3.80;;;;;;;25.85;42.86;96821.75;5003090;28;20056;-63
2023/10/21 09:00:38;;;;;;;3.88;3.78;;;;;;;26.09;41.91;96825.50;5003550;28;20406;-53
2023/10/21 09:03:05;;;;;;;3.75;3.65;;;;;;;26.36;41.26;96827.47;5002800;28;20054;-55
2023/10/21 09:05:34;;;;;;;4.10;4.00;;;;;;;26.46;40.51;96831.84;5003667;28;20144;-62
2023/10/21 09:08:02;;;;;;;3.65;3.55;;;;;;;26.65;39.79;96819.91;5003587;28;20061;-61
2023/10/21 09:10:30;;;;;;;3.92;3.83;;;;;;;26.96;38.80;96824.47;5000075;28;20510;-53
2023/10/21 09:13:11;;;;;;;3.95;3.85;;;;;;;26.36;36.70;96674.06;4993131;28;20667;-62
2023/10/21 09:15:38;;;;;;;4.00;3.90;;;;;;;27.16;35.72;96811.22;4987391;28;20058;-53
2023/10/21 09:18:13;;;;;;;4.50;4.40;;;;;;;27.34;34.21;96805.41;5008811;28;20108;-55
2023/10/21 09:20:47;;;;;;;4.05;3.95;;;;;;;27.50;33.81;96772.88;5025411;28;20057;-61
2023/10/21 09:23:14;;;;;;;4.05;3.95;;;;;;;28.05;32.32;96802.38;5008620;28;20053;-53
2023/10/21 09:25:48;;;;;;;4.32;4.22;;;;;;;28.26;31.47;96797.53;5007187;28;20050;-61
2023/10/21 09:28:23;;;;;;;4.55;4.45;;;;;;;28.36;30.88;96779.06;5007121;28;20050;-61
2023/10/21 09:31:01;;;;;;;4.43;4.32;;;;;;;28.67;30.77;96790.69;5007139;28;20139;-54
2023/10/21 09:33:28;;;;;;;4.65;4.55;;;;;;;28.85;30.85;96784.72;5007193;28;20495;-62
2023/10/21 09:36:07;;;;;;;4.53;4.43;;;;;;;28.84;29.89;96777.44;5006398;28;20069;-62
2023/10/21 09:38:54;;;;;;;4.65;4.55;;;;;;;28.92;29.56;96772.88;5006892;28;20049;-63
2023/10/21 09:41:22;;;;;;;4.43;4.33;;;;;;;28.97;29.83;96789.28;5006881;28;20049;-55
2023/10/21 09:43:51;;;;;;;4.40;4.30;;;;;;;29.10;29.70;96772.66;5006313;28;20141;-62
2023/10/21 09:46:22;;;;;;;4.93;4.82;;;;;;;29.25;29.66;96764.78;5006710;28;20052;-54
2023/10/21 09:48:52;;;;;;;4.30;4.20;;;;;;;28.95;29.29;96720.53;5006970;28;20148;-55
2023/10/21 09:51:22;;;;;;;4.70;4.60;;;;;;;29.38;29.27;96765.97;5007092;28;20058;-63
2023/10/21 09:53:56;;;;;;;4.35;4.25;;;;;;;29.14;28.54;96733.25;5003075;28;20077;-61
2023/10/21 09:56:24;;;;;;;4.32;4.22;;;;;;;29.14;28.88;96733.25;5004663;28;20050;-54
2023/10/21 09:58:53;;;;;;;4.35;4.25;;;;;;;29.17;28.88;96732.25;5003633;28;20487;-61
2023/10/21 10:01:23;;;;;;;4.65;4.55;;;;;;;29.34;28.84;96758.91;5004857;28;20069;-54
2023/10/21 10:03:52;;;;;;;4.78;4.68;;;;;;;29.41;28.83;96764.19;5004877;28;20460;-54
2023/10/21 10:06:19;;;;;;;5.05;4.95;;;;;;;29.56;28.45;96764.84;5004834;28;20081;-61
2023/10/21 10:08:53;;;;;;;4.55;4.45;;;;;;;29.56;28.55;96742.00;5006287;28;20463;-54
2023/10/21 10:11:21;;;;;;;5.00;4.90;;;;;;;29.75;28.61;96760.41;5005897;28;20057;-62
2023/10/21 10:13:48;;;;;;;4.45;4.35;;;;;;;29.63;28.14;96717.94;5006397;28;20057;-61
2023/10/21 10:16:19;;;;;;;5.20;5.10;;;;;;;29.46;28.20;96681.47;5006406;28;20397;-54
2023/10/21 10:18:50;;;;;;;4.57;4.47;;;;;;;29.66;28.10;96717.75;5006272;28;20129;-63
2023/10/21 10:21:18;;;;;;;4.72;4.63;;;;;;;29.85;28.07;96707.53;4988754;28;20046;-63
2023/10/21 10:23:57;;;;;;;4.50;4.40;;;;;;;30.10;28.04;96741.00;5005564;28;20444;-63
2023/10/21 10:26:36;;;;;;;4.47;4.38;;;;;;;30.17;28.01;96740.53;5004571;28;20141;-63
2023/10/21 10:29:25;;;;;;;4.47;4.38;;;;;;;30.13;27.90;96728.53;5006112;28;20050;-56
2023/10/21 10:32:14;;;;;;;4.47;4.38;;;;;;;30.10;27.78;96729.56;5005464;28;20046;-54
2023/10/21 10:34:52;;;;;;;4.57;4.47;;;;;;;30.24;27.50;96742.19;5005682;28;20061;-63
2023/10/21 10:37:26;;;;;;;4.60;4.50;;;;;;;30.33;27.53;96737.06;5006018;28;20045;-62
2023/10/21 10:39:54;;;;;;;4.90;4.80;;;;;;;30.28;27.45;96740.66;5005190;28;20225;-55
2023/10/21 10:42:26;;;;;;;4.90;4.80;;;;;;;30.41;27.27;96738.16;5005469;28;20429;-62
2023/10/21 10:44:54;;;;;;;4.57;4.47;;;;;;;30.54;27.44;96724.19;5005878;28;20077;-63
2023/10/21 10:47:26;;;;;;;4.50;4.40;;;;;;;30.54;27.11;96729.91;5005228;28;20065;-55
2023/10/21 10:49:57;;;;;;;4.50;4.40;;;;;;;30.40;27.23;96712.91;5004633;28;20683;-54
2023/10/21 10:52:31;;;;;;;4.25;4.15;;;;;;;30.49;27.13;96722.06;5005547;28;20053;-55
2023/10/21 10:54:58;;;;;;;4.60;4.50;;;;;;;30.40;27.15;96693.69;5005848;28;20413;-63
2023/10/21 10:57:28;;;;;;;4.47;4.38;;;;;;;30.65;27.01;96732.81;5005108;28;20286;-54
2023/10/21 10:59:56;;;;;;;4.50;4.40;;;;;;;30.08;26.70;96640.69;5003882;28;20060;-62
2023/10/21 11:02:27;;;;;;;4.60;4.50;;;;;;;30.58;26.84;96724.75;5004658;28;20076;-62
2023/10/21 11:04:56;;;;;;;4.75;4.65;;;;;;;30.55;27.05;96711.47;5003739;28;20058;-54
2023/10/21 11:07:23;;;;;;;4.93;4.82;;;;;;;30.72;26.39;96734.41;5004435;28;20058;-54
2023/10/21 11:10:02;;;;;;;4.22;4.13;;;;;;;30.45;26.65;96692.16;5004689;28;20101;-54
2023/10/21 11:12:28;;;;;;;4.38;4.28;;;;;;;30.53;26.62;96682.59;5004719;28;20120;-63
2023/10/21 11:14:57;;;;;;;4.97;4.88;;;;;;;30.50;26.37;96700.78;5004428;28;20050;-63
2023/10/21 11:17:24;;;;;;;4.82;4.72;;;;;;;30.84;26.74;96701.75;5011233;28;20049;-62
2023/10/21 11:19:50;;;;;;;4.07;3.97;;;;;;;30.96;26.44;96709.09;5004991;28;20137;-57
2023/10/21 11:22:28;;;;;;;4.40;4.30;;;;;;;30.60;26.29;96659.22;5003212;28;20057;-54
2023/10/21 11:24:54;;;;;;;5.13;5.03;;;;;;;30.93;26.42;96710.91;5001758;28;20119;-54
2023/10/21 11:27:22;;;;;;;4.65;4.55;;;;;;;30.98;26.21;96705.72;5002817;28;20046;-62
2023/10/21 11:29:52;;;;;;;4.85;4.75;;;;;;;30.98;26.15;96713.00;5002713;28;20524;-62
2023/10/21 11:32:30;;;;;;;5.03;4.93;;;;;;;30.39;26.11;96614.16;4997601;28;20728;-63
2023/10/21 11:35:03;;;;;;;4.50;4.40;;;;;;;31.03;26.03;96707.81;4983432;28;20062;-54
2023/10/21 11:37:30;;;;;;;4.47;4.38;;;;;;;31.03;26.16;96699.22;4994174;28;20104;-55
2023/10/21 11:39:58;;;;;;;4.60;4.50;;;;;;;31.01;26.09;96698.97;5004466;28;20112;-62